Time,TemperatureF,DewpointF,PressureIn,WindDirection,WindDirectionDegrees,WindSpeedMPH,WindSpeedGustMPH,Humidity,HourlyPrecipIn,Conditions,Clouds,dailyrainin,SoftwareType,DateUTC
2013-09-13 00:04:00,66.0,66.0,29.68,South,180,3.0,8.0,100,0.07,,,0.01,Weather View 32 v70,2013-09-13 04:04:00,
2013-09-13 00:09:00,66.0,66.0,29.68,South,180,3.0,8.0,100,0.07,,,0.01,Weather View 32 v70,2013-09-13 04:09:00,
2013-09-13 00:15:00,66.0,66.0,29.68,SSE,158,3.0,8.0,100,0.07,,,0.02,Weather View 32 v70,2013-09-13 04:15:00,
2013-09-13 00:20:00,66.0,66.0,29.67,SSE,158,3.0,8.0,100,0.08,,,0.04,Weather View 32 v70,2013-09-13 04:20:00,
2013-09-13 00:29:00,66.0,66.0,29.66,SSW,202,2.0,8.0,100,0.09,,,0.06,Weather View 32 v70,2013-09-13 04:29:00,
2013-09-13 00:40:00,65.0,65.0,29.65,WSW,248,3.0,8.0,100,0.10,,,0.07,Weather View 32 v70,2013-09-13 04:40:00,
2013-09-13 00:49:00,65.0,65.0,29.64,SSW,202,1.0,8.0,100,0.10,,,0.09,Weather View 32 v70,2013-09-13 04:49:00,
2013-09-13 00:55:00,65.0,65.0,29.64,SE,135,3.0,8.0,100,0.10,,,0.09,Weather View 32 v70,2013-09-13 04:55:00,
2013-09-13 01:04:00,65.0,65.0,29.64,South,180,3.0,6.0,100,0.08,,,0.09,Weather View 32 v70,2013-09-13 05:04:00,
2013-09-13 01:15:00,65.0,65.0,29.65,South,180,1.0,6.0,100,0.07,,,0.09,Weather View 32 v70,2013-09-13 05:15:00,
2013-09-13 01:24:00,65.0,65.0,29.65,South,180,2.0,6.0,100,0.04,,,0.09,Weather View 32 v70,2013-09-13 05:24:00,
2013-09-13 01:30:00,65.0,65.0,29.65,South,180,4.0,6.0,100,0.03,,,0.09,Weather View 32 v70,2013-09-13 05:30:00,
2013-09-13 01:39:00,65.0,65.0,29.64,SE,135,6.0,7.0,100,0.02,,,0.09,Weather View 32 v70,2013-09-13 05:39:00,
2013-09-13 01:45:00,65.0,65.0,29.64,SW,225,1.0,7.0,100,0.01,,,0.09,Weather View 32 v70,2013-09-13 05:45:00,
2013-09-13 01:54:00,65.0,65.0,29.64,SSE,158,1.0,7.0,100,0.00,,,0.09,Weather View 32 v70,2013-09-13 05:54:00,
2013-09-13 02:00:00,65.0,65.0,29.64,SW,225,1.0,7.0,100,0.00,,,0.09,Weather View 32 v70,2013-09-13 06:00:00,
2013-09-13 02:10:00,65.0,65.0,29.65,SSE,158,1.0,7.0,100,0.00,,,0.09,Weather View 32 v70,2013-09-13 06:10:00,
2013-09-13 02:19:00,65.0,65.0,29.64,SSW,202,3.0,7.0,100,0.00,,,0.09,Weather View 32 v70,2013-09-13 06:19:00,
2013-09-13 02:25:00,65.0,65.0,29.64,WSW,248,3.0,7.0,100,0.01,,,0.10,Weather View 32 v70,2013-09-13 06:25:00,
2013-09-13 02:34:00,65.0,65.0,29.64,SE,135,3.0,7.0,100,0.01,,,0.10,Weather View 32 v70,2013-09-13 06:34:00,
2013-09-13 02:40:00,65.0,65.0,29.64,South,180,3.0,7.0,100,0.01,,,0.10,Weather View 32 v70,2013-09-13 06:40:00,
2013-09-13 02:49:00,65.0,65.0,29.64,South,180,3.0,7.0,100,0.01,,,0.10,Weather View 32 v70,2013-09-13 06:49:00,
2013-09-13 02:55:00,65.0,65.0,29.64,WSW,248,4.0,7.0,100,0.01,,,0.10,Weather View 32 v70,2013-09-13 06:55:00,
2013-09-13 03:04:00,65.0,65.0,29.64,SW,225,3.0,7.0,100,0.02,,,0.11,Weather View 32 v70,2013-09-13 07:04:00,
2013-09-13 03:15:00,65.0,65.0,29.63,SW,225,3.0,7.0,100,0.02,,,0.11,Weather View 32 v70,2013-09-13 07:15:00,
2013-09-13 03:24:00,65.0,65.0,29.63,SE,135,3.0,7.0,100,0.02,,,0.12,Weather View 32 v70,2013-09-13 07:24:00,
2013-09-13 03:35:00,65.0,65.0,29.63,South,180,5.0,7.0,100,0.02,,,0.12,Weather View 32 v70,2013-09-13 07:35:00,
2013-09-13 03:43:00,65.0,65.0,29.63,South,180,6.0,7.0,100,0.02,,,0.12,Weather View 32 v70,2013-09-13 07:43:00,
2013-09-13 03:50:00,65.0,65.0,29.63,South,180,3.0,7.0,100,0.02,,,0.12,Weather View 32 v70,2013-09-13 07:50:00,
2013-09-13 03:59:00,65.0,65.0,29.63,South,180,3.0,7.0,100,0.02,,,0.13,Weather View 32 v70,2013-09-13 07:59:00,
2013-09-13 04:05:00,65.0,65.0,29.63,South,180,1.0,7.0,100,0.02,,,0.13,Weather View 32 v70,2013-09-13 08:05:00,
2013-09-13 04:14:00,65.0,65.0,29.63,South,180,0.0,7.0,100,0.02,,,0.13,Weather View 32 v70,2013-09-13 08:14:00,
2013-09-13 04:25:00,65.0,65.0,29.62,South,180,0.0,7.0,100,0.01,,,0.13,Weather View 32 v70,2013-09-13 08:25:00,
2013-09-13 04:34:00,64.0,64.0,29.62,South,180,1.0,6.0,100,0.02,,,0.14,Weather View 32 v70,2013-09-13 08:34:00,
2013-09-13 04:39:00,64.0,64.0,29.62,South,180,1.0,6.0,100,0.02,,,0.14,Weather View 32 v70,2013-09-13 08:39:00,
2013-09-13 04:45:00,64.0,64.0,29.62,South,180,1.0,6.0,100,0.02,,,0.14,Weather View 32 v70,2013-09-13 08:45:00,
2013-09-13 04:54:00,64.0,64.0,29.62,South,180,0.0,5.0,100,0.01,,,0.14,Weather View 32 v70,2013-09-13 08:54:00,
2013-09-13 05:00:00,64.0,64.0,29.62,South,180,0.0,4.0,100,0.01,,,0.14,Weather View 32 v70,2013-09-13 09:00:00,
2013-09-13 05:09:00,64.0,64.0,29.62,South,180,0.0,3.0,100,0.02,,,0.15,Weather View 32 v70,2013-09-13 09:09:00,
2013-09-13 05:15:00,64.0,64.0,29.62,South,180,0.0,3.0,100,0.02,,,0.15,Weather View 32 v70,2013-09-13 09:15:00,
2013-09-13 05:20:00,64.0,64.0,29.62,South,180,1.0,3.0,100,0.02,,,0.15,Weather View 32 v70,2013-09-13 09:20:00,
2013-09-13 05:29:00,64.0,64.0,29.62,South,180,0.0,3.0,100,0.01,,,0.15,Weather View 32 v70,2013-09-13 09:29:00,
2013-09-13 05:40:00,64.0,64.0,29.62,South,180,0.0,2.0,100,0.01,,,0.15,Weather View 32 v70,2013-09-13 09:40:00,
2013-09-13 05:49:00,64.0,64.0,29.62,South,180,0.0,1.0,100,0.01,,,0.15,Weather View 32 v70,2013-09-13 09:49:00,
2013-09-13 06:00:00,64.0,64.0,29.62,South,180,0.0,1.0,100,0.02,,,0.16,Weather View 32 v70,2013-09-13 10:00:00,
2013-09-13 06:10:00,64.0,64.0,29.63,South,180,0.0,1.0,100,0.01,,,0.16,Weather View 32 v70,2013-09-13 10:10:00,
2013-09-13 06:15:00,64.0,64.0,29.63,South,180,0.0,1.0,100,0.01,,,0.16,Weather View 32 v70,2013-09-13 10:15:00,
2013-09-13 06:24:00,63.0,63.0,29.63,South,180,0.0,1.0,100,0.01,,,0.16,Weather View 32 v70,2013-09-13 10:24:00,
2013-09-13 06:30:00,63.0,63.0,29.63,South,180,0.0,1.0,100,0.01,,,0.16,Weather View 32 v70,2013-09-13 10:30:00,
2013-09-13 06:40:00,63.0,63.0,29.63,South,180,0.0,1.0,100,0.01,,,0.16,Weather View 32 v70,2013-09-13 10:40:00,
2013-09-13 06:45:00,63.0,63.0,29.63,South,180,0.0,1.0,100,0.01,,,0.16,Weather View 32 v70,2013-09-13 10:45:00,
2013-09-13 06:55:00,64.0,64.0,29.64,South,180,0.0,1.0,100,0.00,,,0.16,Weather View 32 v70,2013-09-13 10:55:00,
2013-09-13 07:04:00,63.0,63.0,29.64,South,180,0.0,2.0,100,0.00,,,0.16,Weather View 32 v70,2013-09-13 11:04:00,
2013-09-13 07:15:00,64.0,64.0,29.63,South,180,0.0,2.0,100,0.00,,,0.16,Weather View 32 v70,2013-09-13 11:15:00,
2013-09-13 07:25:00,64.0,64.0,29.63,South,180,1.0,2.0,100,0.00,,,0.16,Weather View 32 v70,2013-09-13 11:25:00,
2013-09-13 07:34:00,64.0,64.0,29.63,South,180,1.0,2.0,100,0.00,,,0.16,Weather View 32 v70,2013-09-13 11:34:00,
2013-09-13 07:40:00,64.0,64.0,29.63,South,180,0.0,2.0,100,0.00,,,0.16,Weather View 32 v70,2013-09-13 11:40:00,
2013-09-13 07:46:00,64.0,64.0,29.64,South,180,1.0,2.0,100,0.01,,,0.17,Weather View 32 v70,2013-09-13 11:46:00,
2013-09-13 07:55:00,64.0,64.0,29.64,South,180,1.0,2.0,100,0.01,,,0.17,Weather View 32 v70,2013-09-13 11:55:00,
2013-09-13 08:05:00,64.0,64.0,29.64,South,180,0.0,2.0,100,0.01,,,0.17,Weather View 32 v70,2013-09-13 12:05:00,
2013-09-13 08:14:00,64.0,64.0,29.63,South,180,0.0,2.0,100,0.01,,,0.17,Weather View 32 v70,2013-09-13 12:14:00,
2013-09-13 08:20:00,64.0,64.0,29.63,South,180,0.0,2.0,100,0.01,,,0.17,Weather View 32 v70,2013-09-13 12:20:00,
2013-09-13 08:25:00,65.0,65.0,29.63,South,180,1.0,2.0,100,0.01,,,0.17,Weather View 32 v70,2013-09-13 12:25:00,
2013-09-13 08:34:00,65.0,65.0,29.63,South,180,0.0,2.0,100,0.01,,,0.17,Weather View 32 v70,2013-09-13 12:34:00,
2013-09-13 08:45:00,65.0,65.0,29.63,South,180,1.0,2.0,100,0.00,,,0.17,Weather View 32 v70,2013-09-13 12:45:00,
2013-09-13 08:54:00,65.0,65.0,29.63,South,180,1.0,1.0,100,0.00,,,0.17,Weather View 32 v70,2013-09-13 12:54:00,
2013-09-13 09:00:00,65.0,65.0,29.62,South,180,0.0,1.0,100,0.00,,,0.17,Weather View 32 v70,2013-09-13 13:00:00,
2013-09-13 09:10:00,65.0,65.0,29.63,South,180,0.0,1.0,100,0.00,,,0.17,Weather View 32 v70,2013-09-13 13:10:00,
2013-09-13 09:19:00,65.0,65.0,29.63,South,180,0.0,1.0,100,0.00,,,0.17,Weather View 32 v70,2013-09-13 13:19:00,
2013-09-13 09:25:00,66.0,66.0,29.63,South,180,1.0,1.0,100,0.00,,,0.17,Weather View 32 v70,2013-09-13 13:25:00,
2013-09-13 09:30:00,66.0,66.0,29.63,South,180,0.0,1.0,100,0.00,,,0.17,Weather View 32 v70,2013-09-13 13:30:00,
2013-09-13 09:39:00,65.0,65.0,29.63,SSW,202,1.0,3.0,100,0.00,,,0.17,Weather View 32 v70,2013-09-13 13:39:00,
2013-09-13 09:44:00,65.0,65.0,29.63,SW,225,1.0,3.0,100,0.00,,,0.17,Weather View 32 v70,2013-09-13 13:44:00,
2013-09-13 09:50:00,65.0,65.0,29.63,SW,225,1.0,3.0,100,0.00,,,0.17,Weather View 32 v70,2013-09-13 13:50:00,
2013-09-13 09:59:00,65.0,65.0,29.64,SW,225,1.0,3.0,100,0.00,,,0.17,Weather View 32 v70,2013-09-13 13:59:00,
2013-09-13 10:05:00,65.0,65.0,29.63,SW,225,1.0,3.0,100,0.00,,,0.17,Weather View 32 v70,2013-09-13 14:05:00,
2013-09-13 10:10:00,66.0,66.0,29.64,SW,225,0.0,3.0,100,0.00,,,0.17,Weather View 32 v70,2013-09-13 14:10:00,
2013-09-13 10:19:00,66.0,66.0,29.63,SW,225,1.0,3.0,100,0.00,,,0.17,Weather View 32 v70,2013-09-13 14:19:00,
2013-09-13 10:25:00,66.0,66.0,29.64,SW,225,1.0,3.0,100,0.00,,,0.17,Weather View 32 v70,2013-09-13 14:25:00,
2013-09-13 10:30:00,66.0,66.0,29.63,SW,225,2.0,3.0,100,0.00,,,0.17,Weather View 32 v70,2013-09-13 14:30:00,
2013-09-13 10:40:00,66.0,66.0,29.63,SW,225,1.0,3.0,100,0.00,,,0.17,Weather View 32 v70,2013-09-13 14:40:00,
2013-09-13 10:47:00,67.0,67.0,29.63,SSW,202,1.0,3.0,100,0.00,,,0.17,Weather View 32 v70,2013-09-13 14:47:00,
2013-09-13 10:55:00,67.0,67.0,29.63,SSW,202,1.0,3.0,100,0.00,,,0.17,Weather View 32 v70,2013-09-13 14:55:00,
2013-09-13 10:59:00,67.0,67.0,29.62,SSW,202,1.0,3.0,100,0.00,,,0.17,Weather View 32 v70,2013-09-13 14:59:00,
2013-09-13 11:05:00,67.0,67.0,29.62,SSW,202,1.0,3.0,100,0.00,,,0.17,Weather View 32 v70,2013-09-13 15:05:00,
2013-09-13 11:10:00,67.0,67.0,29.62,South,180,2.0,3.0,100,0.00,,,0.17,Weather View 32 v70,2013-09-13 15:10:00,
2013-09-13 11:19:00,68.0,68.0,29.62,SE,135,0.0,3.0,100,0.00,,,0.17,Weather View 32 v70,2013-09-13 15:19:00,
2013-09-13 11:30:00,68.0,68.0,29.62,West,270,1.0,4.0,100,0.00,,,0.17,Weather View 32 v70,2013-09-13 15:30:00,
2013-09-13 11:39:00,69.0,69.0,29.62,SSE,158,1.0,4.0,100,0.00,,,0.17,Weather View 32 v70,2013-09-13 15:39:00,
2013-09-13 11:44:00,69.0,69.0,29.62,SSE,158,0.0,4.0,100,0.00,,,0.17,Weather View 32 v70,2013-09-13 15:44:00,
2013-09-13 11:50:00,69.0,69.0,29.62,SSE,158,0.0,4.0,100,0.00,,,0.17,Weather View 32 v70,2013-09-13 15:50:00,
2013-09-13 11:59:00,69.0,69.0,29.63,SSE,158,0.0,4.0,100,0.01,,,0.18,Weather View 32 v70,2013-09-13 15:59:00,
2013-09-13 12:05:00,68.0,68.0,29.63,SSE,158,1.0,4.0,100,0.01,,,0.18,Weather View 32 v70,2013-09-13 16:05:00,
2013-09-13 12:15:00,68.0,68.0,29.63,SSE,158,0.0,4.0,100,0.02,,,0.19,Weather View 32 v70,2013-09-13 16:15:00,
2013-09-13 12:19:00,68.0,68.0,29.62,SSE,158,0.0,4.0,100,0.02,,,0.19,Weather View 32 v70,2013-09-13 16:19:00,
2013-09-13 12:30:00,67.0,67.0,29.62,SSE,158,1.0,3.0,100,0.03,,,0.20,Weather View 32 v70,2013-09-13 16:30:00,
2013-09-13 12:40:00,68.0,68.0,29.61,SSE,158,1.0,3.0,100,0.04,,,0.21,Weather View 32 v70,2013-09-13 16:40:00,
2013-09-13 12:44:00,68.0,68.0,29.61,SSE,158,0.0,3.0,100,0.04,,,0.21,Weather View 32 v70,2013-09-13 16:44:00,
2013-09-13 12:50:00,68.0,68.0,29.61,SSE,158,1.0,3.0,100,0.04,,,0.21,Weather View 32 v70,2013-09-13 16:50:00,
2013-09-13 12:59:00,69.0,69.0,29.61,WNW,292,1.0,3.0,100,0.03,,,0.21,Weather View 32 v70,2013-09-13 16:59:00,
2013-09-13 13:04:00,69.0,69.0,29.60,SW,225,1.0,3.0,100,0.03,,,0.21,Weather View 32 v70,2013-09-13 17:04:00,
2013-09-13 13:10:00,69.0,69.0,29.60,South,180,2.0,4.0,100,0.02,,,0.21,Weather View 32 v70,2013-09-13 17:10:00,
2013-09-13 13:20:00,70.0,70.0,29.60,SSW,202,1.0,4.0,100,0.02,,,0.21,Weather View 32 v70,2013-09-13 17:20:00,
2013-09-13 13:29:00,70.0,68.8,29.60,WNW,292,2.0,5.0,96,0.01,,,0.21,Weather View 32 v70,2013-09-13 17:29:00,
2013-09-13 13:40:00,70.0,68.2,29.60,SE,135,2.0,5.0,94,0.00,,,0.21,Weather View 32 v70,2013-09-13 17:40:00,
2013-09-13 13:45:00,70.0,68.2,29.60,SSW,202,1.0,5.0,94,0.00,,,0.21,Weather View 32 v70,2013-09-13 17:45:00,
2013-09-13 13:55:00,69.0,67.2,29.60,WNW,292,1.0,5.0,94,0.00,,,0.21,Weather View 32 v70,2013-09-13 17:55:00,
2013-09-13 14:05:00,68.0,66.2,29.60,WSW,248,1.0,5.0,94,0.00,,,0.21,Weather View 32 v70,2013-09-13 18:05:00,
2013-09-13 14:14:00,68.0,66.2,29.61,South,180,1.0,5.0,94,0.00,,,0.21,Weather View 32 v70,2013-09-13 18:14:00,
2013-09-13 14:20:00,68.0,66.2,29.60,South,180,1.0,5.0,94,0.00,,,0.21,Weather View 32 v70,2013-09-13 18:20:00,
2013-09-13 14:25:00,67.0,65.8,29.61,SE,135,1.0,5.0,96,0.00,,,0.21,Weather View 32 v70,2013-09-13 18:25:00,
2013-09-13 14:34:00,66.0,65.7,29.61,WNW,292,4.0,6.0,99,0.04,,,0.25,Weather View 32 v70,2013-09-13 18:34:00,
2013-09-13 14:39:00,65.0,65.0,29.60,WNW,292,1.0,6.0,100,0.11,,,0.32,Weather View 32 v70,2013-09-13 18:39:00,
2013-09-13 14:45:00,64.0,64.0,29.61,SW,225,3.0,7.0,100,0.15,,,0.36,Weather View 32 v70,2013-09-13 18:45:00,
2013-09-13 14:50:00,63.0,63.0,29.61,West,270,3.0,8.0,100,0.18,,,0.39,Weather View 32 v70,2013-09-13 18:50:00,
2013-09-13 15:00:00,63.0,63.0,29.62,SW,225,4.0,10.0,100,0.18,,,0.39,Weather View 32 v70,2013-09-13 19:00:00,
2013-09-13 15:10:00,63.0,63.0,29.62,WNW,292,8.0,10.0,100,0.18,,,0.39,Weather View 32 v70,2013-09-13 19:10:00,
2013-09-13 15:19:00,62.0,62.0,29.63,WSW,248,5.0,14.0,100,0.18,,,0.39,Weather View 32 v70,2013-09-13 19:19:00,
2013-09-13 15:24:00,62.0,62.0,29.63,WNW,292,4.0,14.0,100,0.18,,,0.39,Weather View 32 v70,2013-09-13 19:24:00,
2013-09-13 15:30:00,62.0,62.0,29.63,SSW,202,5.0,14.0,100,0.18,,,0.39,Weather View 32 v70,2013-09-13 19:30:00,
2013-09-13 15:40:00,62.0,62.0,29.63,WNW,292,3.0,14.0,100,0.07,,,0.39,Weather View 32 v70,2013-09-13 19:40:00,
2013-09-13 15:49:00,62.0,62.0,29.63,West,270,5.0,14.0,100,0.00,,,0.39,Weather View 32 v70,2013-09-13 19:49:00,
2013-09-13 15:55:00,62.0,62.0,29.63,SW,225,3.0,14.0,100,0.00,,,0.39,Weather View 32 v70,2013-09-13 19:55:00,
2013-09-13 16:04:00,62.0,62.0,29.63,WNW,292,5.0,14.0,100,0.00,,,0.39,Weather View 32 v70,2013-09-13 20:04:00,
2013-09-13 16:10:00,62.0,62.0,29.63,SW,225,3.0,14.0,100,0.00,,,0.39,Weather View 32 v70,2013-09-13 20:10:00,
2013-09-13 16:19:00,62.0,62.0,29.63,West,270,3.0,11.0,100,0.00,,,0.39,Weather View 32 v70,2013-09-13 20:19:00,
2013-09-13 16:24:00,62.0,62.0,29.64,SW,225,1.0,11.0,100,0.00,,,0.39,Weather View 32 v70,2013-09-13 20:24:00,
2013-09-13 16:35:00,62.0,62.0,29.64,WSW,248,6.0,11.0,100,0.00,,,0.39,Weather View 32 v70,2013-09-13 20:35:00,
2013-09-13 16:45:00,62.0,62.0,29.64,West,270,0.0,11.0,100,0.00,,,0.39,Weather View 32 v70,2013-09-13 20:45:00,
2013-09-13 16:51:00,62.0,62.0,29.65,SW,225,3.0,11.0,100,0.00,,,0.39,Weather View 32 v70,2013-09-13 20:51:00,
2013-09-13 17:00:00,61.0,61.0,29.65,South,180,3.0,11.0,100,0.00,,,0.39,Weather View 32 v70,2013-09-13 21:00:00,
2013-09-13 17:10:00,61.0,61.0,29.65,SSE,158,1.0,11.0,100,0.00,,,0.39,Weather View 32 v70,2013-09-13 21:10:00,
2013-09-13 17:20:00,61.0,61.0,29.65,WSW,248,3.0,9.0,100,0.00,,,0.39,Weather View 32 v70,2013-09-13 21:20:00,
2013-09-13 17:29:00,61.0,61.0,29.66,WNW,292,1.0,9.0,100,0.00,,,0.39,Weather View 32 v70,2013-09-13 21:29:00,
2013-09-13 17:35:00,61.0,61.0,29.65,WSW,248,3.0,9.0,100,0.00,,,0.39,Weather View 32 v70,2013-09-13 21:35:00,
2013-09-13 17:45:00,61.0,61.0,29.65,West,270,5.0,9.0,100,0.00,,,0.39,Weather View 32 v70,2013-09-13 21:45:00,
2013-09-13 17:52:00,61.0,61.0,29.65,SW,225,5.0,9.0,100,0.00,,,0.39,Weather View 32 v70,2013-09-13 21:52:00,
2013-09-13 17:59:00,61.0,61.0,29.65,SW,225,1.0,9.0,100,0.00,,,0.39,Weather View 32 v70,2013-09-13 21:59:00,
2013-09-13 18:04:00,61.0,61.0,29.65,WSW,248,1.0,9.0,100,0.00,,,0.39,Weather View 32 v70,2013-09-13 22:04:00,
2013-09-13 18:15:00,61.0,61.0,29.66,SW,225,0.0,8.0,100,0.00,,,0.39,Weather View 32 v70,2013-09-13 22:15:00,
2013-09-13 18:20:00,61.0,61.0,29.66,WSW,248,1.0,8.0,100,0.00,,,0.39,Weather View 32 v70,2013-09-13 22:20:00,
2013-09-13 18:29:00,61.0,61.0,29.66,West,270,5.0,8.0,100,0.00,,,0.39,Weather View 32 v70,2013-09-13 22:29:00,
2013-09-13 18:39:00,60.0,59.7,29.67,WNW,292,1.0,8.0,99,0.00,,,0.39,Weather View 32 v70,2013-09-13 22:39:00,
2013-09-13 18:45:00,60.0,59.7,29.67,WSW,248,2.0,10.0,99,0.00,,,0.39,Weather View 32 v70,2013-09-13 22:45:00,
2013-09-13 18:50:00,60.0,59.7,29.67,WNW,292,4.0,10.0,99,0.00,,,0.39,Weather View 32 v70,2013-09-13 22:50:00,
2013-09-13 19:00:00,60.0,59.7,29.67,SW,225,1.0,10.0,99,0.00,,,0.39,Weather View 32 v70,2013-09-13 23:00:00,
2013-09-13 19:09:00,59.0,58.4,29.68,SW,225,2.0,10.0,98,0.00,,,0.39,Weather View 32 v70,2013-09-13 23:09:00,
2013-09-13 19:14:00,59.0,58.4,29.68,WNW,292,1.0,10.0,98,0.00,,,0.39,Weather View 32 v70,2013-09-13 23:14:00,
2013-09-13 19:19:00,59.0,58.4,29.68,West,270,1.0,10.0,98,0.00,,,0.39,Weather View 32 v70,2013-09-13 23:19:00,
2013-09-13 19:25:00,59.0,58.4,29.68,SW,225,1.0,10.0,98,0.00,,,0.39,Weather View 32 v70,2013-09-13 23:25:00,
2013-09-13 19:35:00,59.0,58.4,29.69,SW,225,1.0,10.0,98,0.00,,,0.39,Weather View 32 v70,2013-09-13 23:35:00,
2013-09-13 19:44:00,59.0,58.4,29.70,West,270,3.0,8.0,98,0.00,,,0.39,Weather View 32 v70,2013-09-13 23:44:00,
2013-09-13 19:50:00,59.0,58.4,29.70,SW,225,2.0,8.0,98,0.00,,,0.39,Weather View 32 v70,2013-09-13 23:50:00,
2013-09-13 19:59:00,58.0,57.7,29.71,SW,225,2.0,8.0,99,0.00,,,0.39,Weather View 32 v70,2013-09-13 23:59:00,
2013-09-13 20:05:00,58.0,57.4,29.71,West,270,1.0,8.0,98,0.00,,,0.39,Weather View 32 v70,2013-09-14 00:05:00,
2013-09-13 20:15:00,58.0,57.4,29.71,WNW,292,2.0,8.0,98,0.00,,,0.39,Weather View 32 v70,2013-09-14 00:15:00,
2013-09-13 20:19:00,58.0,57.4,29.71,West,270,6.0,7.0,98,0.00,,,0.39,Weather View 32 v70,2013-09-14 00:19:00,
2013-09-13 20:30:00,58.0,57.2,29.72,South,180,1.0,7.0,97,0.00,,,0.39,Weather View 32 v70,2013-09-14 00:30:00,
2013-09-13 20:40:00,58.0,56.9,29.72,West,270,3.0,7.0,96,0.00,,,0.39,Weather View 32 v70,2013-09-14 00:40:00,
2013-09-13 20:44:00,58.0,56.9,29.72,WNW,292,3.0,8.0,96,0.00,,,0.39,Weather View 32 v70,2013-09-14 00:44:00,
2013-09-13 20:53:00,57.0,55.9,29.72,SSW,202,6.0,8.0,96,0.00,,,0.39,Weather View 32 v70,2013-09-14 00:53:00,
2013-09-13 20:59:00,57.0,55.9,29.73,South,180,2.0,8.0,96,0.00,,,0.39,Weather View 32 v70,2013-09-14 00:59:00,
2013-09-13 21:05:00,57.0,55.6,29.72,SSW,202,3.0,8.0,95,0.00,,,0.39,Weather View 32 v70,2013-09-14 01:05:00,
2013-09-13 21:15:00,57.0,55.9,29.73,WSW,248,3.0,10.0,96,0.00,,,0.39,Weather View 32 v70,2013-09-14 01:15:00,
2013-09-13 21:24:00,57.0,55.9,29.74,WNW,292,2.0,10.0,96,0.00,,,0.39,Weather View 32 v70,2013-09-14 01:24:00,
2013-09-13 21:30:00,57.0,55.6,29.74,WNW,292,1.0,10.0,95,0.00,,,0.39,Weather View 32 v70,2013-09-14 01:30:00,
2013-09-13 21:35:00,56.0,54.6,29.74,WNW,292,1.0,10.0,95,0.00,,,0.39,Weather View 32 v70,2013-09-14 01:35:00,
2013-09-13 21:44:00,56.0,54.9,29.74,SE,135,1.0,10.0,96,0.00,,,0.39,Weather View 32 v70,2013-09-14 01:44:00,
2013-09-13 21:54:00,56.0,54.6,29.74,South,180,1.0,12.0,95,0.00,,,0.39,Weather View 32 v70,2013-09-14 01:54:00,
2013-09-13 21:59:00,56.0,54.6,29.75,SW,225,4.0,12.0,95,0.00,,,0.39,Weather View 32 v70,2013-09-14 01:59:00,
2013-09-13 22:10:00,56.0,54.6,29.75,WNW,292,4.0,12.0,95,0.00,,,0.39,Weather View 32 v70,2013-09-14 02:10:00,
2013-09-13 22:15:00,56.0,54.6,29.75,West,270,3.0,12.0,95,0.00,,,0.39,Weather View 32 v70,2013-09-14 02:15:00,
2013-09-13 22:24:00,56.0,54.6,29.75,West,270,1.0,12.0,95,0.00,,,0.39,Weather View 32 v70,2013-09-14 02:24:00,
2013-09-13 22:34:00,56.0,54.6,29.75,SSW,202,7.0,12.0,95,0.00,,,0.39,Weather View 32 v70,2013-09-14 02:34:00,
2013-09-13 22:40:00,56.0,54.6,29.75,WNW,292,3.0,12.0,95,0.00,,,0.39,Weather View 32 v70,2013-09-14 02:40:00,
2013-09-13 22:49:00,56.0,54.6,29.75,WSW,248,2.0,9.0,95,0.00,,,0.39,Weather View 32 v70,2013-09-14 02:49:00,
2013-09-13 22:55:00,56.0,54.6,29.75,WNW,292,3.0,9.0,95,0.00,,,0.39,Weather View 32 v70,2013-09-14 02:55:00,
2013-09-13 23:00:00,56.0,54.6,29.75,South,180,1.0,9.0,95,0.00,,,0.39,Weather View 32 v70,2013-09-14 03:00:00,
2013-09-13 23:10:00,56.0,54.6,29.75,West,270,3.0,10.0,95,0.00,,,0.39,Weather View 32 v70,2013-09-14 03:10:00,
2013-09-13 23:15:00,56.0,54.6,29.75,West,270,1.0,10.0,95,0.00,,,0.39,Weather View 32 v70,2013-09-14 03:15:00,
2013-09-13 23:24:00,55.0,53.6,29.76,WNW,292,3.0,11.0,95,0.00,,,0.39,Weather View 32 v70,2013-09-14 03:24:00,
2013-09-13 23:29:00,55.0,53.6,29.76,West,270,2.0,11.0,95,0.00,,,0.39,Weather View 32 v70,2013-09-14 03:29:00,
2013-09-13 23:35:00,55.0,53.6,29.76,SW,225,3.0,11.0,95,0.00,,,0.39,Weather View 32 v70,2013-09-14 03:35:00,
2013-09-13 23:41:00,55.0,53.6,29.76,SW,225,3.0,11.0,95,0.00,,,0.39,Weather View 32 v70,2013-09-14 03:41:00,
2013-09-13 23:50:00,55.0,53.6,29.76,WSW,248,5.0,11.0,95,0.00,,,0.39,Weather View 32 v70,2013-09-14 03:50:00,
2013-09-13 23:59:00,55.0,53.6,29.76,WSW,248,5.0,11.0,95,0.00,,,0.00,Weather View 32 v70,2013-09-14 03:59:00,